createdAt,value
2019-02-24T00:00:48.800Z,-9.38
2019-02-24T00:01:48.754Z,-9.37
2019-02-24T00:02:48.739Z,-9.1
2019-02-24T00:03:49.013Z,-9.36
2019-02-24T00:04:48.987Z,-9.32
2019-02-24T00:05:48.730Z,-9.33
2019-02-24T00:06:49.147Z,-9.25
2019-02-24T00:07:48.769Z,-9.29
2019-02-24T00:08:49.133Z,-9.25
2019-02-24T00:09:49.021Z,-9.2
2019-02-24T00:10:49.050Z,-9.19
2019-02-24T00:11:49.398Z,-9.2
2019-02-24T00:12:48.786Z,-9.37
2019-02-24T00:13:48.739Z,-9.22
2019-02-24T00:14:50.519Z,-9.25
2019-02-24T00:15:49.073Z,-9.15
2019-02-24T00:16:50.526Z,-9.2
2019-02-24T00:17:48.491Z,-9.31
2019-02-24T00:18:48.758Z,-9.29
2019-02-24T00:19:48.716Z,-9.14
2019-02-24T00:20:48.752Z,-9.12
2019-02-24T00:21:49.032Z,-9.19
2019-02-24T00:22:48.743Z,-9.13
2019-02-24T00:23:48.910Z,-9.15
2019-02-24T00:24:48.800Z,-9.14
2019-02-24T00:25:48.924Z,-9.17
2019-02-24T00:26:49.122Z,-9.18
2019-02-24T00:27:48.721Z,-9.11
2019-02-24T00:28:49.034Z,-8.96
2019-02-24T00:29:48.790Z,-9.08
2019-02-24T00:30:49.053Z,-9.12
2019-02-24T00:31:48.745Z,-9.17
2019-02-24T00:32:48.758Z,-9.05
2019-02-24T00:33:48.785Z,-8.92
2019-02-24T00:34:49.023Z,-9.03
2019-02-24T00:35:48.997Z,-9.05
2019-02-24T00:36:49.063Z,-8.95
2019-02-24T00:37:48.906Z,-8.85
2019-02-24T00:38:50.476Z,-8.83
2019-02-24T00:39:49.934Z,-8.92
2019-02-24T00:40:48.710Z,-8.79
2019-02-24T00:41:48.722Z,-8.82
2019-02-24T00:42:49.032Z,-8.84
2019-02-24T00:43:48.699Z,-8.7
2019-02-24T00:44:48.731Z,-8.68
2019-02-24T00:45:48.859Z,-8.7
2019-02-24T00:46:49.273Z,-8.71
2019-02-24T00:47:49.139Z,-8.75
2019-02-24T00:48:48.873Z,-8.79
2019-02-24T00:49:48.628Z,-8.71
2019-02-24T00:50:50.446Z,-8.64
2019-02-24T00:51:48.649Z,-8.69
2019-02-24T00:52:48.891Z,-8.73
2019-02-24T00:53:49.010Z,-8.74
2019-02-24T00:54:48.902Z,-8.66
2019-02-24T00:55:49.061Z,-8.72
2019-02-24T00:56:48.597Z,-8.72
2019-02-24T00:57:48.742Z,-8.83
2019-02-24T00:58:48.579Z,-8.66
2019-02-24T00:59:48.700Z,-8.73
2019-02-24T01:00:49.258Z,-8.67
2019-02-24T01:01:48.793Z,-8.6
2019-02-24T01:02:48.611Z,-8.68
2019-02-24T01:03:50.445Z,-8.59
2019-02-24T01:04:49.012Z,-8.65
2019-02-24T01:05:48.787Z,-8.63
2019-02-24T01:06:48.873Z,-8.7
2019-02-24T01:07:48.671Z,-8.65
2019-02-24T01:08:48.735Z,-8.67
2019-02-24T01:09:48.558Z,-8.65
2019-02-24T01:10:48.661Z,-8.57
2019-02-24T01:11:49.414Z,-8.58
2019-02-24T01:12:48.814Z,-8.57
2019-02-24T01:13:48.925Z,-8.51
2019-02-24T01:14:48.665Z,-8.46
2019-02-24T01:15:48.775Z,-8.57
2019-02-24T01:16:49.201Z,-8.51
2019-02-24T01:17:48.950Z,-8.41
2019-02-24T01:18:49.111Z,-8.4
2019-02-24T01:19:49.739Z,-8.51
2019-02-24T01:20:48.579Z,-8.42
2019-02-24T01:21:49.387Z,-8.36
2019-02-24T01:22:49.502Z,-8.47
2019-02-24T01:23:48.697Z,-8.51
2019-02-24T01:24:50.404Z,-8.52
2019-02-24T01:25:48.401Z,-8.5
2019-02-24T01:26:48.397Z,-8.46
2019-02-24T01:27:48.575Z,-8.39
2019-02-24T01:28:48.576Z,-8.34
2019-02-24T01:29:48.596Z,-8.46
2019-02-24T01:30:49.014Z,-8.4
2019-02-24T01:31:48.707Z,-8.39
2019-02-24T01:32:48.702Z,-8.3
2019-02-24T01:33:50.391Z,-8.36
2019-02-24T01:34:49.141Z,-8.32
2019-02-24T01:35:48.547Z,-8.3
2019-02-24T01:36:48.624Z,-8.32
2019-02-24T01:37:48.641Z,-8.31
2019-02-24T01:38:48.633Z,-8.42
2019-02-24T01:39:49.045Z,-8.41
2019-02-24T01:40:48.904Z,-8.32
2019-02-24T01:41:48.823Z,-8.31
2019-02-24T01:42:48.685Z,-8.33
2019-02-24T01:43:49.117Z,-8.37
2019-02-24T01:44:50.438Z,-8.34
2019-02-24T01:45:48.357Z,-8.39
2019-02-24T01:46:48.359Z,-8.39
2019-02-24T01:47:48.366Z,-8.33
2019-02-24T01:48:48.350Z,-8.36
2019-02-24T01:49:48.355Z,-8.39
2019-02-24T01:50:48.566Z,-8.37
2019-02-24T01:51:48.572Z,-8.36
2019-02-24T01:52:48.787Z,-8.39
2019-02-24T01:53:48.793Z,-8.35
2019-02-24T01:54:48.502Z,-8.32
2019-02-24T01:55:50.035Z,-8.33
2019-02-24T01:56:48.821Z,-8.31
2019-02-24T01:57:48.653Z,-8.32
2019-02-24T01:58:50.354Z,-8.36
2019-02-24T01:59:48.589Z,-8.33
2019-02-24T02:00:48.484Z,-8.32
2019-02-24T02:01:48.625Z,-8.35
2019-02-24T02:02:48.598Z,-8.42
2019-02-24T02:03:48.755Z,-8.46
2019-02-24T02:04:49.441Z,-8.45
2019-02-24T02:05:49.472Z,-8.43
2019-02-24T02:06:48.674Z,-8.44
2019-02-24T02:07:48.673Z,-8.46
2019-02-24T02:08:48.682Z,-8.63
2019-02-24T02:09:48.644Z,-8.49
2019-02-24T02:10:48.599Z,-8.58
2019-02-24T02:11:48.503Z,-8.64
2019-02-24T02:12:48.590Z,-8.67
2019-02-24T02:13:48.545Z,-8.6
2019-02-24T02:14:48.481Z,-8.52
2019-02-24T02:15:48.817Z,-8.49
2019-02-24T02:16:48.620Z,-8.67
2019-02-24T02:17:48.639Z,-8.68
2019-02-24T02:18:48.527Z,-8.73
2019-02-24T02:19:48.550Z,-8.8
2019-02-24T02:20:48.572Z,-8.82
2019-02-24T02:21:48.590Z,-8.8
2019-02-24T02:22:48.560Z,-8.76
2019-02-24T02:23:48.626Z,-8.81
2019-02-24T02:24:49.393Z,-8.78
2019-02-24T02:25:48.444Z,-8.89
2019-02-24T02:26:49.817Z,-8.78
2019-02-24T02:27:49.710Z,-8.76
2019-02-24T02:28:48.811Z,-8.72
2019-02-24T02:29:48.718Z,-8.7
2019-02-24T02:30:48.568Z,-8.72
2019-02-24T02:31:48.558Z,-8.76
2019-02-24T02:32:50.579Z,-8.77
2019-02-24T02:33:48.531Z,-8.61
2019-02-24T02:34:48.434Z,-8.53
2019-02-24T02:35:49.028Z,-8.73
2019-02-24T02:36:48.647Z,-8.8
2019-02-24T02:37:50.305Z,-8.84
2019-02-24T02:38:48.546Z,-8.96
2019-02-24T02:39:48.595Z,-9.02
2019-02-24T02:40:48.699Z,-8.96
2019-02-24T02:41:48.432Z,-8.95
2019-02-24T02:42:48.908Z,-9.01
2019-02-24T02:43:49.831Z,-8.96
2019-02-24T02:44:48.462Z,-8.95
2019-02-24T02:45:48.818Z,-8.97
2019-02-24T02:46:48.482Z,-8.93
2019-02-24T02:47:48.470Z,-8.82
2019-02-24T02:48:49.410Z,-8.8
2019-02-24T02:49:48.904Z,-8.76
2019-02-24T02:50:48.489Z,-8.64
2019-02-24T02:51:48.435Z,-8.58
2019-02-24T02:52:48.547Z,-8.6
2019-02-24T02:53:48.434Z,-8.56
2019-02-24T02:54:48.679Z,-8.57
2019-02-24T02:55:48.479Z,-8.55
2019-02-24T02:56:48.511Z,-8.45
2019-02-24T02:57:48.428Z,-8.42
2019-02-24T02:58:54.929Z,-8.44
2019-02-24T02:59:50.282Z,-8.43
2019-02-24T03:00:48.718Z,-8.45
2019-02-24T03:01:48.402Z,-8.42
2019-02-24T03:02:48.456Z,-8.52
2019-02-24T03:03:48.848Z,-8.45
2019-02-24T03:04:48.636Z,-8.38
2019-02-24T03:05:49.793Z,-8.37
2019-02-24T03:06:48.504Z,-8.34
2019-02-24T03:07:48.439Z,-8.29
2019-02-24T03:08:48.872Z,-8.4
2019-02-24T03:09:48.897Z,-8.23
2019-02-24T03:10:49.088Z,-8.19
2019-02-24T03:11:48.578Z,-8.16
2019-02-24T03:12:48.363Z,-8.17
2019-02-24T03:13:48.696Z,-8.15
2019-02-24T03:14:48.434Z,-8.04
2019-02-24T03:15:48.773Z,-8.55
2019-02-24T03:16:48.753Z,-8.56
2019-02-24T03:17:48.565Z,-8.43
2019-02-24T03:18:48.445Z,-8.31
2019-02-24T03:19:48.396Z,-8.29
2019-02-24T03:20:48.643Z,-8.25
2019-02-24T03:21:48.728Z,-8.04
2019-02-24T03:22:48.641Z,-8.14
2019-02-24T03:23:48.492Z,-8.04
2019-02-24T03:24:48.785Z,-8.09
2019-02-24T03:25:48.458Z,-7.95
2019-02-24T03:26:48.720Z,-8.02
2019-02-24T03:27:48.472Z,-7.95
2019-02-24T03:28:48.544Z,-8.01
2019-02-24T03:29:48.803Z,-7.97
2019-02-24T03:30:48.862Z,-7.94
2019-02-24T03:31:49.062Z,-8.03
2019-02-24T03:32:48.351Z,-8.05
2019-02-24T03:33:48.492Z,-8.1
2019-02-24T03:34:48.398Z,-8.24
2019-02-24T03:35:48.636Z,-8.35
2019-02-24T03:36:48.703Z,-8.27
2019-02-24T03:37:50.227Z,-8.31
2019-02-24T03:38:48.646Z,-8.3
2019-02-24T03:39:48.473Z,-8.4
2019-02-24T03:40:48.505Z,-8.45
2019-02-24T03:41:48.380Z,-8.53
2019-02-24T03:42:48.441Z,-8.6
2019-02-24T03:43:48.533Z,-8.58
2019-02-24T03:44:48.394Z,-8.55
2019-02-24T03:45:50.198Z,-8.59
2019-02-24T03:46:49.294Z,-8.57
2019-02-24T03:47:48.474Z,-8.62
2019-02-24T03:48:48.387Z,-8.67
2019-02-24T03:49:48.415Z,-8.42
2019-02-24T03:50:50.180Z,-8.38
2019-02-24T03:51:48.497Z,-8.34
2019-02-24T03:52:49.118Z,-8.41
2019-02-24T03:53:48.377Z,-8.35
2019-02-24T03:54:48.313Z,-8.32
2019-02-24T03:55:48.337Z,-8.16
2019-02-24T03:56:48.436Z,-8.14
2019-02-24T03:57:48.388Z,-8.28
2019-02-24T03:58:48.598Z,-8.21
2019-02-24T03:59:48.483Z,-8.15
2019-02-24T04:00:48.407Z,-8.18
2019-02-24T04:01:48.439Z,-8.16
2019-02-24T04:02:48.460Z,-8.34
2019-02-24T04:03:50.181Z,-8.42
2019-02-24T04:04:48.827Z,-8.55
2019-02-24T04:05:48.668Z,-9.27
2019-02-24T04:06:48.344Z,-9.21
2019-02-24T04:07:48.305Z,-9.12
2019-02-24T04:08:48.343Z,-9.43
2019-02-24T04:09:48.360Z,-9.74
2019-02-24T04:10:48.472Z,-9.34
2019-02-24T04:11:48.811Z,-9.21
2019-02-24T04:12:48.362Z,-9.27
2019-02-24T04:13:50.164Z,-9.31
2019-02-24T04:14:49.172Z,-9.25
2019-02-24T04:15:48.309Z,-9.3
2019-02-24T04:16:48.488Z,-9.35
2019-02-24T04:17:48.513Z,-9.3
2019-02-24T04:18:48.285Z,-9.2
2019-02-24T04:19:48.382Z,-9.14
2019-02-24T04:20:48.631Z,-9.74
2019-02-24T04:21:50.132Z,-9.84
2019-02-24T04:22:48.854Z,-9.53
2019-02-24T04:23:48.280Z,-9.42
2019-02-24T04:24:50.133Z,-9.4
2019-02-24T04:25:48.361Z,-9.48
2019-02-24T04:26:48.671Z,-9.35
2019-02-24T04:27:48.421Z,-9.47
2019-02-24T04:28:48.353Z,-9.63
2019-02-24T04:29:48.377Z,-9.31
2019-02-24T04:30:48.364Z,-9.7
2019-02-24T04:31:48.384Z,-9.82
2019-02-24T04:32:48.295Z,-10.05
2019-02-24T04:33:48.342Z,-9.86
2019-02-24T04:34:48.565Z,-9.76
2019-02-24T04:35:48.988Z,-9.73
2019-02-24T04:36:48.908Z,-9.63
2019-02-24T04:37:48.468Z,-9.88
2019-02-24T04:38:49.202Z,-10.05
2019-02-24T04:39:50.150Z,-9.99
2019-02-24T04:40:48.672Z,-9.88
2019-02-24T04:41:48.461Z,-9.9
2019-02-24T04:42:48.480Z,-9.87
2019-02-24T04:43:48.819Z,-9.98
2019-02-24T04:44:48.341Z,-9.96
2019-02-24T04:45:49.100Z,-9.82
2019-02-24T04:46:48.344Z,-9.64
2019-02-24T04:47:48.283Z,-9.65
2019-02-24T04:48:48.340Z,-9.93
2019-02-24T04:49:48.540Z,-9.82
2019-02-24T04:50:48.233Z,-9.31
2019-02-24T04:51:48.350Z,-9.09
2019-02-24T04:52:48.664Z,-9.07
2019-02-24T04:53:48.377Z,-8.9
2019-02-24T04:54:48.384Z,-8.79
2019-02-24T04:55:48.421Z,-8.81
2019-02-24T04:56:48.484Z,-8.84
2019-02-24T04:57:49.473Z,-8.76
2019-02-24T04:58:48.234Z,-8.66
2019-02-24T04:59:48.308Z,-8.63
2019-02-24T05:00:49.377Z,-8.58
2019-02-24T05:01:49.141Z,-8.61
2019-02-24T05:02:48.384Z,-8.63
2019-02-24T05:03:48.316Z,-8.63
2019-02-24T05:04:48.522Z,-8.61
2019-02-24T05:05:50.095Z,-8.68
2019-02-24T05:06:50.095Z,-8.69
2019-02-24T05:07:48.199Z,-8.62
2019-02-24T05:08:48.258Z,-8.52
2019-02-24T05:09:48.551Z,-8.47
2019-02-24T05:10:48.563Z,-8.69
2019-02-24T05:11:48.651Z,-8.78
2019-02-24T05:12:48.562Z,-8.78
2019-02-24T05:13:48.407Z,-8.85
2019-02-24T05:14:48.595Z,-8.74
2019-02-24T05:15:48.308Z,-8.72
2019-02-24T05:16:49.111Z,-8.57
2019-02-24T05:17:50.089Z,-8.6
2019-02-24T05:18:48.335Z,-8.71
2019-02-24T05:19:48.935Z,-8.74
2019-02-24T05:20:48.347Z,-8.68
2019-02-24T05:21:48.244Z,-8.63
2019-02-24T05:22:48.232Z,-8.66
2019-02-24T05:23:48.428Z,-8.67
2019-02-24T05:24:48.914Z,-8.63
2019-02-24T05:25:48.561Z,-8.65
2019-02-24T05:26:48.614Z,-8.63
2019-02-24T05:27:48.355Z,-8.74
2019-02-24T05:28:48.235Z,-8.89
2019-02-24T05:29:48.595Z,-9.08
2019-02-24T05:30:48.233Z,-8.98
2019-02-24T05:31:48.389Z,-8.9
2019-02-24T05:32:50.064Z,-8.8
2019-02-24T05:33:48.728Z,-9.04
2019-02-24T05:34:48.304Z,-9.09
2019-02-24T05:35:48.333Z,-8.94
2019-02-24T05:36:49.662Z,-8.97
2019-02-24T05:37:48.329Z,-8.89
2019-02-24T05:38:48.369Z,-8.89
2019-02-24T05:39:49.067Z,-8.81
2019-02-24T05:40:49.363Z,-9.03
2019-02-24T05:41:48.198Z,-8.82
2019-02-24T05:42:48.227Z,-8.83
2019-02-24T05:43:48.456Z,-8.8
2019-02-24T05:44:48.780Z,-8.75
2019-02-24T05:45:48.404Z,-8.75
2019-02-24T05:46:48.370Z,-8.62
2019-02-24T05:47:48.495Z,-8.45
2019-02-24T05:48:48.277Z,-8.59
2019-02-24T05:49:48.398Z,-8.48
2019-02-24T05:50:48.403Z,-8.49
2019-02-24T05:51:48.860Z,-8.73
2019-02-24T05:52:48.168Z,-8.62
2019-02-24T05:53:48.278Z,-8.51
2019-02-24T05:54:48.159Z,-8.46
2019-02-24T05:55:48.345Z,-8.23
2019-02-24T05:56:48.459Z,-8.22
2019-02-24T05:57:48.226Z,-8.22
2019-02-24T05:58:48.320Z,-8.25
2019-02-24T05:59:55.779Z,-8.22
2019-02-24T06:00:48.484Z,-8.19
2019-02-24T06:01:48.139Z,-8.2
2019-02-24T06:02:49.156Z,-8.25
2019-02-24T06:03:48.277Z,-8.22
2019-02-24T06:04:48.105Z,-8.41
2019-02-24T06:05:48.460Z,-8.29
2019-02-24T06:06:48.321Z,-8.27
2019-02-24T06:07:48.099Z,-8.23
2019-02-24T06:08:48.300Z,-8.07
2019-02-24T06:09:49.201Z,-8.12
2019-02-24T06:10:48.119Z,-8.07
2019-02-24T06:11:48.509Z,-8.2
2019-02-24T06:12:48.544Z,-8.22
2019-02-24T06:13:48.308Z,-8.21
2019-02-24T06:14:48.451Z,-8.19
2019-02-24T06:15:48.474Z,-8.31
2019-02-24T06:16:48.459Z,-8.23
2019-02-24T06:17:48.291Z,-8.3
2019-02-24T06:18:48.422Z,-8.24
2019-02-24T06:19:48.401Z,-8.4
2019-02-24T06:20:48.219Z,-8.4
2019-02-24T06:21:49.972Z,-8.3
2019-02-24T06:22:48.165Z,-8.23
2019-02-24T06:23:49.131Z,-8.2
2019-02-24T06:24:49.966Z,-8.27
2019-02-24T06:25:48.210Z,-8.33
2019-02-24T06:26:48.261Z,-8.47
2019-02-24T06:27:48.335Z,-8.52
2019-02-24T06:28:48.363Z,-8.84
2019-02-24T06:29:48.235Z,-8.95
2019-02-24T06:30:48.419Z,-9.26
2019-02-24T06:31:48.181Z,-9.92
2019-02-24T06:32:48.373Z,-10.06
2019-02-24T06:33:48.286Z,-10.27
2019-02-24T06:34:48.452Z,-10.2
2019-02-24T06:35:48.200Z,-10
2019-02-24T06:36:48.522Z,-9.87
2019-02-24T06:37:48.190Z,-9.75
2019-02-24T06:38:48.125Z,-9.7
2019-02-24T06:39:48.116Z,-9.68
2019-02-24T06:40:48.227Z,-9.81
2019-02-24T06:41:48.429Z,-9.78
2019-02-24T06:42:48.130Z,-9.62
2019-02-24T06:43:48.659Z,-9.9
2019-02-24T06:44:48.962Z,-9.64
2019-02-24T06:45:49.233Z,-9.6
2019-02-24T06:46:49.964Z,-9.66
2019-02-24T06:47:48.370Z,-10.16
2019-02-24T06:48:49.950Z,-10.05
2019-02-24T06:49:47.906Z,-9.83
2019-02-24T06:50:47.896Z,-9.61
2019-02-24T06:51:47.898Z,-9.73
2019-02-24T06:52:48.098Z,-9.75
2019-02-24T06:53:48.317Z,-9.65
2019-02-24T06:54:48.201Z,-9.76
2019-02-24T06:55:49.917Z,-9.77
2019-02-24T06:56:48.340Z,-10.44
2019-02-24T06:57:48.266Z,-9.72
2019-02-24T06:58:48.086Z,-9.59
2019-02-24T06:59:48.335Z,-9.36
2019-02-24T07:00:48.890Z,-9.69
2019-02-24T07:01:48.956Z,-9.57
2019-02-24T07:02:48.201Z,-10.23
2019-02-24T07:03:48.337Z,-9.86
2019-02-24T07:04:48.213Z,-9.61
2019-02-24T07:05:48.404Z,-9.56
2019-02-24T07:06:48.697Z,-9.62
2019-02-24T07:07:48.558Z,-9.51
2019-02-24T07:08:48.887Z,-9.56
2019-02-24T07:09:48.013Z,-9.62
2019-02-24T07:10:48.352Z,-9.53
2019-02-24T07:11:48.334Z,-9.57
2019-02-24T07:12:48.330Z,-9.5
2019-02-24T07:13:48.347Z,-9.67
2019-02-24T07:14:48.261Z,-9.79
2019-02-24T07:15:48.130Z,-9.91
2019-02-24T07:16:48.368Z,-9.91
2019-02-24T07:17:48.226Z,-9.79
2019-02-24T07:18:49.199Z,-9.86
2019-02-24T07:19:48.275Z,-9.87
2019-02-24T07:20:48.876Z,-9.75
2019-02-24T07:21:48.710Z,-9.77
2019-02-24T07:22:48.101Z,-9.69
2019-02-24T07:23:49.877Z,-10.07
2019-02-24T07:24:48.112Z,-10
2019-02-24T07:25:48.850Z,-9.98
2019-02-24T07:26:47.986Z,-9.95
2019-02-24T07:27:48.526Z,-9.76
2019-02-24T07:28:49.850Z,-9.87
2019-02-24T07:29:48.341Z,-10
2019-02-24T07:30:48.129Z,-10.15
2019-02-24T07:31:48.361Z,-10.08
2019-02-24T07:32:48.786Z,-10
2019-02-24T07:33:48.037Z,-10.07
2019-02-24T07:34:48.186Z,-9.78
2019-02-24T07:35:48.294Z,-9.94
2019-02-24T07:36:48.186Z,-9.93
2019-02-24T07:37:48.341Z,-9.78
2019-02-24T07:38:48.291Z,-9.8
2019-02-24T07:39:48.324Z,-9.71
2019-02-24T07:40:48.405Z,-9.65
2019-02-24T07:41:48.444Z,-9.61
2019-02-24T07:42:48.488Z,-9.63
2019-02-24T07:43:48.328Z,-9.55
2019-02-24T07:44:48.227Z,-9.6
2019-02-24T07:45:48.445Z,-9.5
2019-02-24T07:46:48.337Z,-9.46
2019-02-24T07:47:48.170Z,-9.36
2019-02-24T07:48:47.947Z,-9.21
2019-02-24T07:49:48.638Z,-9.18
2019-02-24T07:50:48.004Z,-9.38
2019-02-24T07:51:49.836Z,-9.24
2019-02-24T07:52:49.837Z,-9.33
2019-02-24T07:53:48.391Z,-9.21
2019-02-24T07:54:49.811Z,-9.19
2019-02-24T07:55:48.312Z,-9.37
2019-02-24T07:56:48.037Z,-9.19
2019-02-24T07:57:48.341Z,-9.27
2019-02-24T07:58:48.337Z,-9.22
2019-02-24T07:59:48.064Z,-9.22
2019-02-24T08:00:48.470Z,-9.2
2019-02-24T08:01:48.072Z,-9.05
2019-02-24T08:02:48.003Z,-9.01
2019-02-24T08:03:48.280Z,-9.09
2019-02-24T08:04:48.177Z,-9.1
2019-02-24T08:05:48.083Z,-9.03
2019-02-24T08:06:48.178Z,-9.02
2019-02-24T08:07:48.180Z,-8.88
2019-02-24T08:08:48.551Z,-9.06
2019-02-24T08:09:48.183Z,-9.04
2019-02-24T08:10:48.407Z,-8.97
2019-02-24T08:11:49.793Z,-8.95
2019-02-24T08:12:48.792Z,-8.97
2019-02-24T08:13:48.216Z,-9.05
2019-02-24T08:14:48.332Z,-8.91
2019-02-24T08:15:48.234Z,-9.06
2019-02-24T08:16:48.257Z,-9.04
2019-02-24T08:17:48.138Z,-8.94
2019-02-24T08:18:52.190Z,-8.86
2019-02-24T08:19:48.474Z,-8.85
2019-02-24T08:20:48.496Z,-9.01
2019-02-24T08:21:49.781Z,-8.99
2019-02-24T08:22:48.174Z,-8.84
2019-02-24T08:23:48.699Z,-8.83
2019-02-24T08:24:47.997Z,-8.84
2019-02-24T08:25:48.096Z,-8.83
2019-02-24T08:26:48.304Z,-8.67
2019-02-24T08:27:48.610Z,-8.71
2019-02-24T08:28:47.909Z,-8.93
2019-02-24T08:29:48.332Z,-8.83
2019-02-24T08:30:48.338Z,-8.86
2019-02-24T08:31:48.358Z,-8.84
2019-02-24T08:32:48.751Z,-8.95
2019-02-24T08:33:48.655Z,-8.94
2019-02-24T08:34:47.893Z,-8.88
2019-02-24T08:35:48.229Z,-8.71
2019-02-24T08:36:48.792Z,-8.68
2019-02-24T08:37:48.075Z,-8.54
2019-02-24T08:38:48.082Z,-8.68
2019-02-24T08:39:48.074Z,-8.69
2019-02-24T08:40:48.002Z,-8.61
2019-02-24T08:41:48.088Z,-8.76
2019-02-24T08:42:48.312Z,-8.76
2019-02-24T08:43:48.225Z,-8.6
2019-02-24T08:44:48.646Z,-8.83
2019-02-24T08:45:48.073Z,-8.73
2019-02-24T08:46:48.135Z,-8.73
2019-02-24T08:47:48.194Z,-8.84
2019-02-24T08:48:48.353Z,-9.06
2019-02-24T08:49:48.269Z,-8.79
2019-02-24T08:50:48.172Z,-8.67
2019-02-24T08:51:48.475Z,-8.56
2019-02-24T08:52:47.957Z,-8.79
2019-02-24T08:53:48.389Z,-8.7
2019-02-24T08:54:48.814Z,-8.75
2019-02-24T08:55:48.798Z,-8.66
2019-02-24T08:56:48.206Z,-8.81
2019-02-24T08:57:48.325Z,-8.7
2019-02-24T08:58:48.845Z,-8.92
2019-02-24T08:59:48.215Z,-8.87
2019-02-24T09:00:51.593Z,-8.96
2019-02-24T09:01:48.125Z,-8.93
2019-02-24T09:02:48.740Z,-8.75
2019-02-24T09:03:48.274Z,-8.64
2019-02-24T09:04:48.248Z,-8.4
2019-02-24T09:05:49.699Z,-8.45
2019-02-24T09:06:47.880Z,-8.58
2019-02-24T09:07:48.055Z,-8.46
2019-02-24T09:08:48.073Z,-8.76
2019-02-24T09:09:48.465Z,-9.13
2019-02-24T09:10:48.182Z,-8.91
2019-02-24T09:11:48.733Z,-8.85
2019-02-24T09:12:49.057Z,-8.9
2019-02-24T09:13:48.100Z,-9.27
2019-02-24T09:14:48.013Z,-8.85
2019-02-24T09:15:48.756Z,-8.69
2019-02-24T09:16:48.753Z,-8.65
2019-02-24T09:17:47.829Z,-8.82
2019-02-24T09:18:47.849Z,-8.62
2019-02-24T09:19:49.179Z,-8.65
2019-02-24T09:20:48.093Z,-8.82
2019-02-24T09:21:47.880Z,-9.05
2019-02-24T09:22:48.224Z,-8.99
2019-02-24T09:23:48.177Z,-9.3
2019-02-24T09:24:48.715Z,-9.19
2019-02-24T09:25:48.088Z,-8.95
2019-02-24T09:26:48.095Z,-8.96
2019-02-24T09:27:48.461Z,-9.18
2019-02-24T09:28:48.003Z,-9.06
2019-02-24T09:29:49.665Z,-9.08
2019-02-24T09:30:47.856Z,-8.99
2019-02-24T09:31:48.224Z,-9.32
2019-02-24T09:32:48.033Z,-9.46
2019-02-24T09:33:48.034Z,-9.09
2019-02-24T09:34:48.146Z,-9.07
2019-02-24T09:35:48.199Z,-9.12
2019-02-24T09:36:48.043Z,-9.08
2019-02-24T09:37:49.659Z,-9.05
2019-02-24T09:38:48.387Z,-8.87
2019-02-24T09:39:49.665Z,-8.86
2019-02-24T09:40:48.120Z,-9.01
2019-02-24T09:41:48.100Z,-8.93
2019-02-24T09:42:47.779Z,-9
2019-02-24T09:43:49.398Z,-9.11
2019-02-24T09:44:48.003Z,-9.03
2019-02-24T09:45:48.017Z,-8.99
2019-02-24T09:46:48.206Z,-9.22
2019-02-24T09:47:48.150Z,-9.08
2019-02-24T09:48:48.027Z,-9.03
2019-02-24T09:49:48.037Z,-8.75
2019-02-24T09:50:48.145Z,-9.58
2019-02-24T09:51:48.180Z,-9.31
2019-02-24T09:52:47.845Z,-9.55
2019-02-24T09:53:48.265Z,-9.42
2019-02-24T09:54:48.126Z,-9.21
2019-02-24T09:55:48.110Z,-8.93
2019-02-24T09:56:48.296Z,-9.04
2019-02-24T09:57:47.802Z,-9
2019-02-24T09:58:48.858Z,-9.12
2019-02-24T09:59:48.528Z,-8.85
2019-02-24T10:00:47.796Z,-8.82
2019-02-24T10:01:48.134Z,-8.7
2019-02-24T10:02:48.248Z,-8.93
2019-02-24T10:03:47.785Z,-9.07
2019-02-24T10:04:47.800Z,-8.95
2019-02-24T10:05:47.756Z,-9.14
2019-02-24T10:06:48.064Z,-9.06
2019-02-24T10:07:47.772Z,-8.74
2019-02-24T10:08:47.965Z,-9.05
2019-02-24T10:09:48.173Z,-8.8
2019-02-24T10:10:48.195Z,-8.68
2019-02-24T10:11:48.072Z,-9.16
2019-02-24T10:12:47.810Z,-9.12
2019-02-24T10:13:47.801Z,-8.71
2019-02-24T10:14:48.000Z,-8.84
2019-02-24T10:15:47.881Z,-9.49
2019-02-24T10:16:47.739Z,-9.26
2019-02-24T10:17:48.612Z,-8.98
2019-02-24T10:18:47.898Z,-9.41
2019-02-24T10:19:48.140Z,-9.21
2019-02-24T10:20:49.362Z,-9.34
2019-02-24T10:21:47.909Z,-8.89
2019-02-24T10:22:47.813Z,-8.68
2019-02-24T10:23:49.627Z,-8.91
2019-02-24T10:24:47.746Z,-8.86
2019-02-24T10:25:48.384Z,-8.62
2019-02-24T10:26:47.790Z,-8.12
2019-02-24T10:27:47.841Z,-8.72
2019-02-24T10:28:48.113Z,-8.25
2019-02-24T10:29:47.823Z,-8.58
2019-02-24T10:30:48.113Z,-8.4
2019-02-24T10:31:48.021Z,-8.47
2019-02-24T10:32:48.084Z,-8.37
2019-02-24T10:33:48.285Z,-8.27
2019-02-24T10:34:47.861Z,-8.32
2019-02-24T10:35:48.054Z,-8.32
2019-02-24T10:36:47.729Z,-8.02
2019-02-24T10:37:48.068Z,-8.64
2019-02-24T10:38:48.164Z,-8.65
2019-02-24T10:39:48.591Z,-8.58
2019-02-24T10:40:48.079Z,-8.37
2019-02-24T10:41:47.828Z,-8.78
2019-02-24T10:42:49.566Z,-8.51
2019-02-24T10:43:48.294Z,-8.3
2019-02-24T10:44:48.097Z,-8.59
2019-02-24T10:45:47.756Z,-8.6
2019-02-24T10:46:47.849Z,-8.47
2019-02-24T10:47:47.856Z,-8.62
2019-02-24T10:48:48.049Z,-8.54
2019-02-24T10:49:47.974Z,-8.68
2019-02-24T10:50:48.752Z,-8.89
2019-02-24T10:51:47.776Z,-8.68
2019-02-24T10:52:47.784Z,-8.59
2019-02-24T10:53:49.537Z,-8.6
2019-02-24T10:54:48.232Z,-8.59
2019-02-24T10:55:48.072Z,-8.61
2019-02-24T10:56:47.769Z,-8.56
2019-02-24T10:57:47.885Z,-8.28
2019-02-24T10:58:47.678Z,-8.49
2019-02-24T10:59:48.417Z,-8.31
2019-02-24T11:00:47.701Z,-8.16
2019-02-24T11:01:48.831Z,-8.28
2019-02-24T11:02:47.710Z,-8.67
2019-02-24T11:03:48.137Z,-8.53
2019-02-24T11:04:49.186Z,-8.31
2019-02-24T11:05:49.537Z,-8.27
2019-02-24T11:06:49.539Z,-7.79
2019-02-24T11:07:47.782Z,-8.62
2019-02-24T11:08:47.962Z,-8.88
2019-02-24T11:09:47.687Z,-8.74
2019-02-24T11:10:47.788Z,-8.43
2019-02-24T11:11:48.075Z,-8.21
2019-02-24T11:12:47.956Z,-8.12
2019-02-24T11:13:47.885Z,-8.68
2019-02-24T11:14:47.745Z,-8.3
2019-02-24T11:15:47.710Z,-8.37
2019-02-24T11:16:48.457Z,-8.4
2019-02-24T11:17:47.747Z,-8.38
2019-02-24T11:18:47.725Z,-7.93
2019-02-24T11:19:47.719Z,-8.21
2019-02-24T11:20:47.836Z,-7.91
2019-02-24T11:21:47.645Z,-8.78
2019-02-24T11:22:48.574Z,-8.64
2019-02-24T11:23:47.889Z,-8.54
2019-02-24T11:24:47.972Z,-8.36
2019-02-24T11:25:47.651Z,-8.07
2019-02-24T11:26:48.200Z,-8.27
2019-02-24T11:27:48.395Z,-8.33
2019-02-24T11:28:48.038Z,-8.36
2019-02-24T11:29:47.803Z,-8.5
2019-02-24T11:30:48.693Z,-8.68
2019-02-24T11:31:49.588Z,-8.65
2019-02-24T11:32:49.600Z,-8.65
2019-02-24T11:33:47.672Z,-8.32
2019-02-24T11:34:48.147Z,-7.89
2019-02-24T11:35:48.510Z,-8.56
2019-02-24T11:36:48.186Z,-8.15
2019-02-24T11:37:47.655Z,-7.9
2019-02-24T11:38:47.658Z,-8.14
2019-02-24T11:39:47.679Z,-8.32
2019-02-24T11:40:47.702Z,-8.04
2019-02-24T11:41:47.903Z,-8.51
2019-02-24T11:42:47.665Z,-8.67
2019-02-24T11:43:47.793Z,-8.67
2019-02-24T11:44:47.989Z,-8.03
2019-02-24T11:45:47.855Z,-8.13
2019-02-24T11:46:48.419Z,-8.1
2019-02-24T11:47:48.647Z,-8.73
2019-02-24T11:48:48.883Z,-8.48
2019-02-24T11:49:47.883Z,-8.04
2019-02-24T11:50:48.174Z,-8.01
2019-02-24T11:51:47.854Z,-8.02
2019-02-24T11:52:47.731Z,-8.04
2019-02-24T11:53:47.694Z,-8.05
2019-02-24T11:54:47.756Z,-8.02
2019-02-24T11:55:48.112Z,-7.78
2019-02-24T11:56:47.857Z,-7.72
2019-02-24T11:57:47.823Z,-7.46
2019-02-24T11:58:47.817Z,-8.32
2019-02-24T11:59:49.549Z,-8.5
2019-02-24T12:00:47.789Z,-8.55
2019-02-24T12:01:48.098Z,-8.32
2019-02-24T12:02:48.770Z,-8.17
2019-02-24T12:03:47.595Z,-8.25
2019-02-24T12:04:47.683Z,-8.76
2019-02-24T12:05:47.963Z,-8.66
2019-02-24T12:06:48.876Z,-8.54
2019-02-24T12:07:47.603Z,-8.23
2019-02-24T12:08:47.638Z,-8.69
2019-02-24T12:09:47.776Z,-8.54
2019-02-24T12:10:48.117Z,-8.97
2019-02-24T12:11:48.784Z,-9
2019-02-24T12:12:47.581Z,-8.45
2019-02-24T12:13:47.825Z,-8.63
2019-02-24T12:14:48.212Z,-8.95
2019-02-24T12:15:47.657Z,-8.85
2019-02-24T12:16:47.649Z,-8.22
2019-02-24T12:17:47.645Z,-8.07
2019-02-24T12:18:48.049Z,-7.8
2019-02-24T12:19:48.349Z,-7.83
2019-02-24T12:20:47.662Z,-7.5
2019-02-24T12:21:47.696Z,-7.24
2019-02-24T12:22:47.634Z,-7.51
2019-02-24T12:23:47.716Z,-7.84
2019-02-24T12:24:47.744Z,-7.73
2019-02-24T12:25:47.757Z,-7.96
2019-02-24T12:26:47.604Z,-7.03
2019-02-24T12:27:49.412Z,-6.9
2019-02-24T12:28:48.034Z,-6.99
2019-02-24T12:29:49.515Z,-7.78
2019-02-24T12:30:47.586Z,-7.67
2019-02-24T12:31:57.017Z,-7.31
2019-02-24T12:32:47.700Z,-7.26
2019-02-24T12:33:48.220Z,-8.32
2019-02-24T12:34:47.703Z,-7.76
2019-02-24T12:35:48.448Z,-7.61
2019-02-24T12:36:47.542Z,-7.26
2019-02-24T12:37:47.642Z,-7.19
2019-02-24T12:38:48.441Z,-7.71
2019-02-24T12:39:49.388Z,-7.51
2019-02-24T12:40:47.588Z,-7.57
2019-02-24T12:41:47.488Z,-7.48
2019-02-24T12:42:47.400Z,-7.33
2019-02-24T12:43:47.384Z,-7.29
2019-02-24T12:44:47.637Z,-7.17
2019-02-24T12:45:47.837Z,-7.06
2019-02-24T12:46:48.108Z,-7.45
2019-02-24T12:47:47.580Z,-7.23
2019-02-24T12:48:47.720Z,-7.19
2019-02-24T12:49:48.022Z,-7.66
2019-02-24T12:50:47.753Z,-7.37
2019-02-24T12:51:47.731Z,-6.91
2019-02-24T12:52:48.048Z,-7.37
2019-02-24T12:53:47.550Z,-7.38
2019-02-24T12:54:49.368Z,-7.12
2019-02-24T12:55:48.206Z,-7.25